createdAt,value
2023-11-12T00:04:08.127Z,97057.00
2023-11-12T00:09:30.229Z,97055.00
2023-11-12T00:14:52.099Z,97052.00
2023-11-12T00:20:14.828Z,97044.00
2023-11-12T00:25:36.900Z,97047.00
2023-11-12T00:30:58.817Z,97039.00
2023-11-12T00:36:20.989Z,97041.00
2023-11-12T00:41:43.183Z,97047.00
2023-11-12T00:47:05.045Z,97044.00
2023-11-12T00:52:26.520Z,97056.00
2023-11-12T00:57:48.115Z,97054.00
2023-11-12T01:03:11.807Z,97056.00
2023-11-12T01:08:33.300Z,97049.00
2023-11-12T01:13:55.301Z,97056.00
2023-11-12T01:19:17.651Z,97060.00
2023-11-12T01:24:39.328Z,97052.00
2023-11-12T01:30:00.768Z,97061.00
2023-11-12T01:35:22.489Z,97062.00
2023-11-12T01:40:44.750Z,97055.00
2023-11-12T01:46:08.681Z,97060.00
2023-11-12T01:51:32.446Z,97047.00
2023-11-12T01:56:56.718Z,97055.00
2023-11-12T02:02:19.124Z,97055.00
2023-11-12T02:07:47.107Z,97048.00
2023-11-12T02:13:09.013Z,97044.00
2023-11-12T02:18:30.791Z,97049.00
2023-11-12T02:23:52.516Z,97042.00
2023-11-12T02:29:14.094Z,97036.00
2023-11-12T02:34:36.518Z,97038.00
2023-11-12T02:39:58.144Z,97040.00
2023-11-12T02:45:19.862Z,97051.00
2023-11-12T02:50:41.526Z,97046.00
2023-11-12T02:56:03.343Z,97050.00
2023-11-12T03:01:26.118Z,97042.00
2023-11-12T03:06:49.282Z,97046.00
2023-11-12T03:12:11.525Z,97049.00
2023-11-12T03:17:35.477Z,97048.00
2023-11-12T03:22:58.032Z,97055.00
2023-11-12T03:28:19.858Z,97053.00
2023-11-12T03:33:41.426Z,97056.00
2023-11-12T03:39:03.406Z,97060.00
2023-11-12T03:44:25.146Z,97058.00
2023-11-12T03:49:46.710Z,97054.00
2023-11-12T03:55:08.563Z,97049.00
2023-11-12T04:00:30.355Z,97058.00
2023-11-12T04:05:51.846Z,97066.00
2023-11-12T04:11:13.618Z,97067.00
2023-11-12T04:16:36.075Z,97062.00
2023-11-12T04:21:57.855Z,97054.00
2023-11-12T04:27:19.774Z,97064.00
2023-11-12T04:32:41.750Z,97063.00
2023-11-12T04:38:04.561Z,97059.00
2023-11-12T04:43:26.389Z,97065.00
2023-11-12T04:48:48.430Z,97063.00
2023-11-12T04:54:10.370Z,97075.00
2023-11-12T04:59:32.325Z,97072.00
2023-11-12T05:04:53.688Z,97082.00
2023-11-12T05:10:15.411Z,97085.00
2023-11-12T05:15:37.510Z,97085.00
2023-11-12T05:20:59.365Z,97087.00
2023-11-12T05:26:21.029Z,97087.00
2023-11-12T05:31:42.875Z,97074.00
2023-11-12T05:37:07.582Z,97082.00
2023-11-12T05:42:29.168Z,97083.00
2023-11-12T05:47:50.671Z,97087.00
2023-11-12T05:53:12.239Z,97093.00
2023-11-12T05:58:34.065Z,97095.00
2023-11-12T06:03:57.139Z,97098.00
2023-11-12T06:09:19.013Z,97100.00
2023-11-12T06:14:40.612Z,97101.00
2023-11-12T06:20:04.749Z,97113.00
2023-11-12T06:25:26.535Z,97121.00
2023-11-12T06:30:47.897Z,97115.00
2023-11-12T06:36:11.018Z,97120.00
2023-11-12T06:41:34.205Z,97114.00
2023-11-12T06:46:56.471Z,97124.00
2023-11-12T06:52:19.041Z,97128.00
2023-11-12T06:57:42.059Z,97132.00
2023-11-12T07:03:03.670Z,97136.00
2023-11-12T07:08:25.392Z,97136.00
2023-11-12T07:13:47.172Z,97134.00
2023-11-12T07:19:09.187Z,97146.00
2023-11-12T07:24:30.607Z,97146.00
2023-11-12T07:29:52.080Z,97149.00
2023-11-12T07:35:16.475Z,97154.00
2023-11-12T07:40:38.243Z,97154.00
2023-11-12T07:45:59.800Z,97153.00
2023-11-12T07:51:21.551Z,97158.00
2023-11-12T07:56:43.172Z,97151.00
2023-11-12T08:02:05.048Z,97151.00
2023-11-12T08:07:26.560Z,97153.00
2023-11-12T08:12:48.117Z,97154.00
2023-11-12T08:18:10.259Z,97143.00
2023-11-12T08:23:32.022Z,97148.00
2023-11-12T08:28:54.630Z,97154.00
2023-11-12T08:34:15.976Z,97160.00
2023-11-12T08:39:37.841Z,97162.00
2023-11-12T08:44:59.743Z,97155.00
2023-11-12T08:50:21.313Z,97157.00
2023-11-12T08:55:44.712Z,97172.00
2023-11-12T09:01:11.555Z,97175.00
2023-11-12T09:06:33.120Z,97183.00
2023-11-12T09:11:54.674Z,97184.00
2023-11-12T09:17:16.515Z,97178.00
2023-11-12T09:22:38.365Z,97180.00
2023-11-12T09:28:00.256Z,97196.00
2023-11-12T09:33:22.205Z,97197.00
2023-11-12T09:38:43.743Z,97204.00
2023-11-12T09:44:07.366Z,97216.00
2023-11-12T09:49:30.409Z,97203.00
2023-11-12T09:54:53.254Z,97195.00
2023-11-12T10:00:18.527Z,97209.00
2023-11-12T10:05:40.566Z,97205.00
2023-11-12T10:11:23.264Z,97207.00
2023-11-12T10:16:47.742Z,97206.00
2023-11-12T10:22:10.688Z,97213.00
2023-11-12T10:27:32.304Z,97222.00
2023-11-12T10:32:53.878Z,97216.00
2023-11-12T10:38:19.746Z,97221.00
2023-11-12T10:43:56.025Z,97229.00
2023-11-12T10:49:17.493Z,97235.00
2023-11-12T10:54:41.179Z,97244.00
2023-11-12T11:00:11.832Z,97237.00
2023-11-12T11:05:33.446Z,97235.00
2023-11-12T11:10:56.173Z,97242.00
2023-11-12T11:16:46.301Z,97244.00
2023-11-12T11:22:28.350Z,97246.00
2023-11-12T11:27:53.368Z,97241.00
2023-11-12T11:33:15.933Z,97238.00
2023-11-12T11:38:38.060Z,97237.00
2023-11-12T11:43:59.828Z,97242.00
2023-11-12T11:49:21.989Z,97241.00
2023-11-12T11:54:44.304Z,97242.00
2023-11-12T12:00:06.035Z,97240.00
2023-11-12T12:05:32.330Z,97236.00
2023-11-12T12:10:54.207Z,97239.00
2023-11-12T12:16:25.604Z,97239.00
2023-11-12T12:21:53.830Z,97234.00
2023-11-12T12:27:15.200Z,97237.00
2023-11-12T12:32:38.438Z,97217.00
2023-11-12T12:38:08.426Z,97225.00
2023-11-12T12:43:52.082Z,97223.00
2023-11-12T12:49:28.475Z,97216.00
2023-11-12T12:54:49.998Z,97205.00
2023-11-12T13:00:13.223Z,97208.00
2023-11-12T13:05:34.986Z,97212.00
2023-11-12T13:10:56.505Z,97215.00
2023-11-12T13:16:18.136Z,97215.00
2023-11-12T13:21:53.941Z,97219.00
2023-11-12T13:27:21.132Z,97220.00
2023-11-12T13:32:43.278Z,97220.00
2023-11-12T13:38:04.893Z,97226.00
2023-11-12T13:43:26.648Z,97230.00
2023-11-12T13:48:49.618Z,97228.00
2023-11-12T13:54:12.072Z,97238.00
2023-11-12T13:59:33.766Z,97246.00
2023-11-12T14:04:55.338Z,97237.00
2023-11-12T14:10:19.668Z,97245.00
2023-11-12T14:15:41.793Z,97245.00
2023-11-12T14:21:03.472Z,97246.00
2023-11-12T14:26:25.609Z,97253.00
2023-11-12T14:31:47.553Z,97247.00
2023-11-12T14:37:09.299Z,97261.00
2023-11-12T14:42:31.635Z,97266.00
2023-11-12T14:47:53.673Z,97272.00
2023-11-12T14:53:15.190Z,97274.00
2023-11-12T14:58:38.269Z,97276.00
2023-11-12T15:04:00.025Z,97277.00
2023-11-12T15:09:22.016Z,97276.00
2023-11-12T15:14:44.649Z,97277.00
2023-11-12T15:20:10.492Z,97292.00
2023-11-12T15:25:32.815Z,97296.00
2023-11-12T15:30:54.322Z,97301.00
2023-11-12T15:36:15.967Z,97299.00
2023-11-12T15:41:37.798Z,97302.00
2023-11-12T15:46:59.368Z,97303.00
2023-11-12T15:52:21.824Z,97310.00
2023-11-12T15:57:43.750Z,97321.00
2023-11-12T16:03:13.255Z,97317.00
2023-11-12T16:08:49.202Z,97314.00
2023-11-12T16:14:15.620Z,97301.00
2023-11-12T16:19:38.417Z,97305.00
2023-11-12T16:25:00.364Z,97308.00
2023-11-12T16:30:25.444Z,97307.00
2023-11-12T16:35:47.339Z,97323.00
2023-11-12T16:41:08.931Z,97329.00
2023-11-12T16:46:33.230Z,97323.00
2023-11-12T16:51:55.449Z,97321.00
2023-11-12T16:57:17.280Z,97323.00
2023-11-12T17:02:38.827Z,97342.00
2023-11-12T17:08:00.694Z,97339.00
2023-11-12T17:13:25.252Z,97343.00
2023-11-12T17:18:46.867Z,97334.00
2023-11-12T17:24:09.668Z,97345.00
2023-11-12T17:29:31.455Z,97341.00
2023-11-12T17:34:54.466Z,97350.00
2023-11-12T17:40:17.590Z,97358.00
2023-11-12T17:45:39.600Z,97354.00
2023-11-12T17:51:01.344Z,97355.00
2023-11-12T17:56:23.535Z,97354.00
2023-11-12T18:01:46.790Z,97353.00
2023-11-12T18:07:08.346Z,97362.00
2023-11-12T18:12:30.104Z,97367.00
2023-11-12T18:17:51.891Z,97378.00
2023-11-12T18:23:13.785Z,97371.00
2023-11-12T18:28:38.337Z,97370.00
2023-11-12T18:34:00.488Z,97376.00
2023-11-12T18:39:21.932Z,97378.00
2023-11-12T18:44:43.572Z,97377.00
2023-11-12T18:50:05.311Z,97380.00
2023-11-12T18:55:26.911Z,97371.00
2023-11-12T19:00:48.997Z,97383.00
2023-11-12T19:06:11.142Z,97378.00
2023-11-12T19:11:33.304Z,97381.00
2023-11-12T19:16:55.068Z,97384.00
2023-11-12T19:22:17.539Z,97399.00
2023-11-12T19:27:40.203Z,97399.00
2023-11-12T19:33:03.183Z,97408.00
2023-11-12T19:38:28.079Z,97412.00
2023-11-12T19:43:50.021Z,97413.00
2023-11-12T19:49:11.994Z,97408.00
2023-11-12T19:54:33.951Z,97413.00
2023-11-12T19:59:56.992Z,97422.00
2023-11-12T20:05:18.427Z,97414.00
2023-11-12T20:10:40.866Z,97410.00
2023-11-12T20:16:02.477Z,97417.00
2023-11-12T20:21:26.389Z,97419.00
2023-11-12T20:26:50.559Z,97423.00
2023-11-12T20:32:15.806Z,97425.00
2023-11-12T20:37:38.906Z,97436.00
2023-11-12T20:43:00.870Z,97442.00
2023-11-12T20:48:22.506Z,97439.00
2023-11-12T20:53:44.126Z,97439.00
2023-11-12T20:59:06.166Z,97450.00
2023-11-12T21:04:28.028Z,97458.00
2023-11-12T21:09:50.888Z,97450.00
2023-11-12T21:15:13.412Z,97449.00
2023-11-12T21:20:34.986Z,97465.00
2023-11-12T21:25:57.218Z,97473.00
2023-11-12T21:31:19.525Z,97459.00
2023-11-12T21:36:41.442Z,97465.00
2023-11-12T21:42:09.506Z,97469.00
2023-11-12T21:47:30.997Z,97452.00
2023-11-12T21:52:53.227Z,97443.00
2023-11-12T21:58:15.807Z,97441.00
2023-11-12T22:03:38.445Z,97439.00
2023-11-12T22:09:01.305Z,97440.00
2023-11-12T22:14:23.780Z,97431.00
2023-11-12T22:19:45.404Z,97432.00
2023-11-12T22:25:11.744Z,97431.00
2023-11-12T22:30:38.252Z,97434.00
2023-11-12T22:36:00.718Z,97450.00
2023-11-12T22:41:22.348Z,97470.00
2023-11-12T22:46:49.093Z,97498.00
2023-11-12T22:52:11.338Z,97502.00
2023-11-12T22:57:33.801Z,97505.00
2023-11-12T23:02:57.068Z,97505.00
2023-11-12T23:08:18.751Z,97513.00
2023-11-12T23:13:40.782Z,97517.00
2023-11-12T23:19:02.221Z,97521.00
2023-11-12T23:24:23.866Z,97516.00
2023-11-12T23:29:50.127Z,97515.00
2023-11-12T23:35:12.216Z,97516.00
2023-11-12T23:40:33.710Z,97502.00
2023-11-12T23:45:55.471Z,97514.00
2023-11-12T23:51:18.800Z,97502.00
2023-11-12T23:56:40.651Z,97514.00
